Time;durP1;ratioP1;P1;durP2;ratioP2;P2;SDS_P1;SDS_P2;PMS_P1;PMS_P2;Temp;Humidity;BMP_temperature;BMP_pressure;BME280_temperature;BME280_humidity;BME280_pressure;Samples;Min_cycle;Max_cycle;Signal;HPM_P1;HPM_P2
2023/07/09 00:01:47;;;;;;;7.03;4.30;;;27.10;63.70;;;;;;5075072;28;20312;-74
2023/07/09 00:04:14;;;;;;;5.60;4.70;;;27.00;63.50;;;;;;5074607;28;20389;-74
2023/07/09 00:06:42;;;;;;;6.70;3.90;;;27.00;63.70;;;;;;5075268;28;20738;-74
2023/07/09 00:09:14;;;;;;;6.30;4.50;;;26.90;63.90;;;;;;5074972;28;20194;-74
2023/07/09 00:11:41;;;;;;;8.40;4.13;;;26.80;64.40;;;;;;5075910;28;20281;-74
2023/07/09 00:14:10;;;;;;;6.50;4.57;;;26.80;64.30;;;;;;5070969;28;20228;-74
2023/07/09 00:16:39;;;;;;;5.50;4.63;;;26.70;64.70;;;;;;5075697;28;20221;-74
2023/07/09 00:19:13;;;;;;;5.73;4.47;;;26.70;65.00;;;;;;5075323;28;20229;-74
2023/07/09 00:21:40;;;;;;;5.03;4.33;;;26.60;65.00;;;;;;5075686;28;20201;-74
2023/07/09 00:24:10;;;;;;;5.27;4.10;;;26.60;65.00;;;;;;5074941;28;20209;-74
2023/07/09 00:26:40;;;;;;;5.47;4.47;;;26.60;65.00;;;;;;5065073;28;20219;-74
2023/07/09 00:29:09;;;;;;;5.30;4.23;;;26.60;65.10;;;;;;5075243;28;20302;-74
2023/07/09 00:31:40;;;;;;;6.77;4.50;;;26.50;65.10;;;;;;5075014;28;20701;-74
2023/07/09 00:34:07;;;;;;;6.27;4.10;;;26.50;65.00;;;;;;5074687;28;20197;-74
2023/07/09 00:36:35;;;;;;;6.33;4.40;;;26.40;65.80;;;;;;5074760;28;20318;-74
2023/07/09 00:39:05;;;;;;;5.70;3.73;;;26.40;65.10;;;;;;5074127;28;20208;-74
2023/07/09 00:41:35;;;;;;;6.13;4.40;;;26.40;65.40;;;;;;5071164;28;20214;-73
2023/07/09 00:44:30;;;;;;;4.43;4.03;;;26.40;65.40;;;;;;5067417;28;20208;-73
2023/07/09 00:47:19;;;;;;;7.13;4.40;;;26.40;66.00;;;;;;5074108;28;20213;-75
2023/07/09 00:49:48;;;;;;;5.60;4.70;;;26.30;66.00;;;;;;5074180;28;20196;-74
2023/07/09 00:52:25;;;;;;;5.67;4.00;;;26.30;65.30;;;;;;5074078;28;20290;-74
2023/07/09 00:54:53;;;;;;;5.37;4.30;;;26.30;65.80;;;;;;5074076;28;20309;-74
2023/07/09 00:57:24;;;;;;;5.10;4.10;;;26.30;65.60;;;;;;5073991;28;20220;-74
2023/07/09 00:59:54;;;;;;;5.57;4.43;;;26.30;65.70;;;;;;5073727;28;20321;-74
2023/07/09 01:02:24;;;;;;;5.27;4.30;;;26.20;65.90;;;;;;5073878;28;20200;-74
2023/07/09 01:04:52;;;;;;;6.40;4.20;;;26.20;65.90;;;;;;5072955;28;20203;-75
2023/07/09 01:07:21;;;;;;;4.47;3.80;;;26.20;65.90;;;;;;5074365;28;20205;-74
2023/07/09 01:09:48;;;;;;;5.70;4.10;;;26.20;65.90;;;;;;5067527;28;20197;-75
2023/07/09 01:12:19;;;;;;;6.03;4.20;;;26.10;66.00;;;;;;5074229;28;20257;-74
2023/07/09 01:14:48;;;;;;;5.90;4.20;;;26.10;66.20;;;;;;5072216;28;20198;-73
2023/07/09 01:17:15;;;;;;;5.77;4.60;;;26.00;66.40;;;;;;5074166;28;20332;-74
2023/07/09 01:19:49;;;;;;;7.90;4.30;;;26.00;66.60;;;;;;5072099;28;20228;-74
2023/07/09 01:22:19;;;;;;;6.40;4.30;;;26.00;66.90;;;;;;5074180;28;20285;-75
2023/07/09 01:24:55;;;;;;;6.33;4.00;;;26.00;66.90;;;;;;5073976;28;20209;-72
2023/07/09 01:27:26;;;;;;;4.47;4.03;;;25.90;67.00;;;;;;5074370;28;20299;-74
2023/07/09 01:29:53;;;;;;;4.20;3.80;;;25.90;67.00;;;;;;5074017;28;20733;-74
2023/07/09 01:32:22;;;;;;;8.00;4.47;;;25.90;67.30;;;;;;5074460;28;20216;-74
2023/07/09 01:34:52;;;;;;;6.73;4.80;;;25.80;67.20;;;;;;5072967;28;20759;-74
2023/07/09 01:37:23;;;;;;;5.73;4.10;;;25.80;67.50;;;;;;5073981;28;20209;-74
2023/07/09 01:39:51;;;;;;;5.13;4.10;;;25.80;68.40;;;;;;5073754;28;20646;-74
2023/07/09 01:42:21;;;;;;;5.37;4.50;;;25.70;67.70;;;;;;5071242;28;20690;-73
2023/07/09 01:44:49;;;;;;;5.87;4.50;;;25.70;68.00;;;;;;5073689;28;20205;-74
2023/07/09 01:47:16;;;;;;;4.70;4.20;;;25.70;68.00;;;;;;5073546;28;20559;-74
2023/07/09 01:49:46;;;;;;;4.73;4.20;;;25.70;68.00;;;;;;5071456;28;20204;-74
2023/07/09 01:52:16;;;;;;;4.90;4.40;;;25.60;68.30;;;;;;5073605;28;20221;-74
2023/07/09 01:54:49;;;;;;;6.23;4.30;;;25.60;68.40;;;;;;5073199;28;20758;-74
2023/07/09 01:57:19;;;;;;;6.23;4.20;;;25.80;68.30;;;;;;5073375;28;20225;-74
2023/07/09 01:59:46;;;;;;;4.57;4.10;;;25.60;68.10;;;;;;5073015;28;20212;-74
2023/07/09 02:02:18;;;;;;;6.07;4.10;;;25.60;67.90;;;;;;5073138;28;20213;-74
2023/07/09 02:04:46;;;;;;;5.53;4.37;;;25.50;67.90;;;;;;5072818;28;20193;-74
2023/07/09 02:07:14;;;;;;;4.83;3.93;;;25.50;67.90;;;;;;5072664;28;20205;-74
2023/07/09 02:09:41;;;;;;;5.33;4.17;;;25.50;68.20;;;;;;5069167;28;20222;-73
2023/07/09 02:12:10;;;;;;;5.53;3.90;;;25.50;68.10;;;;;;5061522;28;20294;-72
2023/07/09 02:14:38;;;;;;;4.67;4.07;;;25.50;68.50;;;;;;5073116;28;20224;-73
2023/07/09 02:17:07;;;;;;;4.80;3.83;;;25.40;68.20;;;;;;5056047;28;20297;-73
2023/07/09 02:19:34;;;;;;;4.60;3.77;;;25.40;68.20;;;;;;5057334;28;20574;-73
2023/07/09 02:22:01;;;;;;;4.97;4.17;;;25.40;68.20;;;;;;5072671;28;20212;-73
2023/07/09 02:24:28;;;;;;;5.17;4.33;;;25.40;68.40;;;;;;5072550;28;20201;-73
2023/07/09 02:26:55;;;;;;;5.97;4.20;;;25.40;68.60;;;;;;5072553;28;20305;-73
2023/07/09 02:29:24;;;;;;;6.03;4.00;;;25.40;68.90;;;;;;5067956;28;20293;-74
2023/07/09 02:31:52;;;;;;;4.30;3.90;;;25.30;69.20;;;;;;5072511;28;20713;-74
2023/07/09 02:34:19;;;;;;;4.50;4.00;;;25.30;69.20;;;;;;5072825;28;20208;-74
2023/07/09 02:36:46;;;;;;;5.90;4.57;;;25.30;69.30;;;;;;5072876;28;20216;-74
2023/07/09 02:39:14;;;;;;;5.67;4.60;;;25.20;70.10;;;;;;5072653;28;20217;-74
2023/07/09 02:41:41;;;;;;;6.60;4.00;;;25.20;69.50;;;;;;5071986;28;20288;-74
2023/07/09 02:44:08;;;;;;;4.83;4.33;;;25.20;69.60;;;;;;5071435;28;20343;-74
2023/07/09 02:46:36;;;;;;;4.87;4.10;;;25.10;69.70;;;;;;5072556;28;20562;-74
2023/07/09 02:49:05;;;;;;;7.13;4.30;;;25.10;69.70;;;;;;5071568;28;20328;-74
2023/07/09 02:51:33;;;;;;;4.30;3.90;;;25.10;70.00;;;;;;5072292;28;20211;-74
2023/07/09 02:54:02;;;;;;;6.43;4.20;;;25.00;70.50;;;;;;5071809;28;20207;-73
2023/07/09 02:56:29;;;;;;;4.73;3.80;;;25.00;69.80;;;;;;5071779;28;20223;-74
2023/07/09 02:58:56;;;;;;;6.50;4.53;;;25.00;69.70;;;;;;5071961;28;20212;-74
2023/07/09 03:01:24;;;;;;;9.40;4.37;;;25.00;69.70;;;;;;5071268;28;20308;-74
2023/07/09 03:03:54;;;;;;;4.93;4.30;;;24.90;69.80;;;;;;5071560;28;20208;-74
2023/07/09 03:06:21;;;;;;;7.10;4.27;;;24.90;70.10;;;;;;5071393;28;20196;-73
2023/07/09 03:08:48;;;;;;;6.03;4.43;;;24.80;70.20;;;;;;5071364;28;20212;-74
2023/07/09 03:11:17;;;;;;;4.50;4.10;;;24.80;70.20;;;;;;5071757;28;20197;-74
2023/07/09 03:13:44;;;;;;;5.50;4.37;;;24.80;70.40;;;;;;5071422;28;20327;-74
2023/07/09 03:16:11;;;;;;;4.43;4.03;;;24.80;70.60;;;;;;5070983;28;20224;-74
2023/07/09 03:18:38;;;;;;;5.80;4.90;;;24.80;70.70;;;;;;5036500;28;20243;-74
2023/07/09 03:21:06;;;;;;;6.67;4.07;;;24.80;70.70;;;;;;5072093;28;20231;-74
2023/07/09 03:23:33;;;;;;;4.53;4.00;;;24.80;70.80;;;;;;5072362;28;20226;-74
2023/07/09 03:26:00;;;;;;;5.17;4.03;;;24.80;70.70;;;;;;5072045;28;20591;-74
2023/07/09 03:28:27;;;;;;;5.67;4.40;;;24.70;70.70;;;;;;5071664;28;20208;-74
2023/07/09 03:30:56;;;;;;;7.33;4.70;;;24.70;70.70;;;;;;5071948;28;20225;-74
2023/07/09 03:33:24;;;;;;;5.77;4.73;;;24.60;70.70;;;;;;5074067;28;20213;-74
2023/07/09 03:35:51;;;;;;;4.90;4.50;;;24.60;70.80;;;;;;5076098;28;20205;-74
2023/07/09 03:38:19;;;;;;;4.90;4.40;;;24.60;70.90;;;;;;5075861;28;20220;-74
2023/07/09 03:40:46;;;;;;;4.63;4.17;;;24.60;71.10;;;;;;5076140;28;20728;-74
2023/07/09 03:43:13;;;;;;;6.27;4.60;;;24.60;71.20;;;;;;5075556;28;20228;-74
2023/07/09 03:45:40;;;;;;;6.47;4.63;;;24.50;71.20;;;;;;5075425;28;20193;-74
2023/07/09 03:48:07;;;;;;;7.43;4.70;;;24.50;71.40;;;;;;5075961;28;20221;-74
2023/07/09 03:50:34;;;;;;;5.43;4.70;;;24.50;71.60;;;;;;5074949;28;20655;-74
2023/07/09 03:53:02;;;;;;;5.57;4.60;;;24.50;72.50;;;;;;5076107;28;20578;-74
2023/07/09 03:55:31;;;;;;;5.70;4.00;;;24.50;71.90;;;;;;5075852;28;20204;-74
2023/07/09 03:57:58;;;;;;;4.77;3.97;;;24.50;71.90;;;;;;5075514;28;20243;-74
2023/07/09 04:00:25;;;;;;;6.07;4.43;;;24.40;71.90;;;;;;5075156;28;20289;-74
2023/07/09 04:02:53;;;;;;;5.03;4.10;;;24.40;71.80;;;;;;5075270;28;20200;-74
2023/07/09 04:05:20;;;;;;;5.23;4.50;;;24.40;71.90;;;;;;5075037;28;20209;-74
2023/07/09 04:07:47;;;;;;;6.20;4.30;;;24.40;72.00;;;;;;5075765;28;20201;-74
2023/07/09 04:10:15;;;;;;;5.63;4.47;;;24.40;72.20;;;;;;5075287;28;20205;-74
2023/07/09 04:12:43;;;;;;;5.13;4.40;;;24.40;72.20;;;;;;5074375;28;21031;-74
2023/07/09 04:15:12;;;;;;;7.53;4.43;;;24.40;72.20;;;;;;5074836;28;20227;-74
2023/07/09 04:17:40;;;;;;;5.23;4.37;;;24.40;72.30;;;;;;5074993;28;20217;-73
2023/07/09 04:20:09;;;;;;;5.00;4.00;;;24.40;72.20;;;;;;5075195;28;20221;-74
2023/07/09 04:22:36;;;;;;;4.77;4.27;;;24.40;72.30;;;;;;5074545;28;20676;-74
2023/07/09 04:25:04;;;;;;;5.53;4.20;;;24.40;72.10;;;;;;5074694;28;20726;-74
2023/07/09 04:27:32;;;;;;;6.17;4.43;;;24.40;72.20;;;;;;5075288;28;20193;-74
2023/07/09 04:30:00;;;;;;;6.23;4.90;;;24.40;72.00;;;;;;5074596;28;20205;-74
2023/07/09 04:32:27;;;;;;;7.20;4.67;;;24.40;72.20;;;;;;5074839;28;20205;-74
2023/07/09 04:34:54;;;;;;;6.40;4.33;;;24.50;72.30;;;;;;5074820;28;20204;-74
2023/07/09 04:37:21;;;;;;;7.13;4.50;;;24.50;72.50;;;;;;5074864;28;20229;-74
2023/07/09 04:39:48;;;;;;;6.90;4.30;;;24.60;72.70;;;;;;5074150;28;20212;-74
2023/07/09 04:42:17;;;;;;;5.80;4.53;;;24.60;73.60;;;;;;5074645;28;20224;-74
2023/07/09 04:44:45;;;;;;;5.00;4.50;;;24.60;72.60;;;;;;5074139;28;20259;-74
2023/07/09 04:47:13;;;;;;;7.87;4.27;;;24.60;72.40;;;;;;5075262;28;20545;-74
2023/07/09 04:49:41;;;;;;;4.63;4.10;;;24.70;72.40;;;;;;5074401;28;20747;-73
2023/07/09 04:52:11;;;;;;;4.80;4.20;;;24.70;72.30;;;;;;5074268;28;20284;-74
2023/07/09 04:54:40;;;;;;;5.17;4.40;;;24.70;72.50;;;;;;5074659;28;20233;-74
2023/07/09 04:57:07;;;;;;;4.53;4.10;;;24.70;72.60;;;;;;5074486;28;20300;-74
2023/07/09 04:59:34;;;;;;;5.00;4.50;;;24.70;72.60;;;;;;5074196;28;20224;-75
2023/07/09 05:02:01;;;;;;;6.67;4.07;;;24.80;72.60;;;;;;5075179;28;20191;-75
2023/07/09 05:04:29;;;;;;;5.00;4.03;;;24.80;72.50;;;;;;5074589;28;20297;-75
2023/07/09 05:06:57;;;;;;;7.97;4.37;;;24.90;72.60;;;;;;5074554;28;20237;-75
2023/07/09 05:09:24;;;;;;;5.10;4.23;;;24.90;72.70;;;;;;5074499;28;20193;-75
2023/07/09 05:11:51;;;;;;;6.53;4.47;;;25.00;72.50;;;;;;5074342;28;20624;-74
2023/07/09 05:14:18;;;;;;;6.37;4.37;;;25.00;72.50;;;;;;5074475;28;20213;-75
2023/07/09 05:16:46;;;;;;;5.67;3.87;;;25.10;72.90;;;;;;5074532;28;20665;-75
2023/07/09 05:19:13;;;;;;;7.20;4.47;;;25.20;72.20;;;;;;5073835;28;20791;-75
2023/07/09 05:21:42;;;;;;;5.30;4.07;;;25.20;71.60;;;;;;5074410;28;20280;-73
2023/07/09 05:24:08;;;;;;;7.37;4.93;;;25.30;71.30;;;;;;5074444;28;20225;-73
2023/07/09 05:26:35;;;;;;;5.13;4.07;;;25.30;71.20;;;;;;5074210;28;20326;-75
2023/07/09 05:29:04;;;;;;;5.43;3.97;;;25.40;70.90;;;;;;5073575;28;20818;-75
2023/07/09 05:31:31;;;;;;;6.03;4.13;;;25.40;70.60;;;;;;5074279;28;20203;-75
2023/07/09 05:33:57;;;;;;;5.30;4.20;;;25.50;70.40;;;;;;5073520;28;20213;-75
2023/07/09 05:36:24;;;;;;;6.23;4.63;;;25.60;70.10;;;;;;5073806;28;20239;-75
2023/07/09 05:38:53;;;;;;;4.60;3.70;;;25.60;70.70;;;;;;5073929;28;20329;-75
2023/07/09 05:41:19;;;;;;;6.97;4.00;;;25.80;69.70;;;;;;5073616;28;20220;-75
2023/07/09 05:43:46;;;;;;;4.67;3.97;;;25.80;69.10;;;;;;5074201;28;20205;-75
2023/07/09 05:46:14;;;;;;;4.70;3.83;;;25.90;68.50;;;;;;5073257;28;20215;-75
2023/07/09 05:48:41;;;;;;;5.40;4.30;;;26.00;68.30;;;;;;5073738;28;20221;-75
2023/07/09 05:51:08;;;;;;;5.30;4.30;;;26.10;67.90;;;;;;5073783;28;20201;-75
2023/07/09 05:53:35;;;;;;;5.97;4.50;;;26.10;67.60;;;;;;5073553;28;20217;-75
2023/07/09 05:56:03;;;;;;;6.20;4.20;;;26.20;67.40;;;;;;5072760;28;20199;-75
2023/07/09 05:58:30;;;;;;;4.50;4.10;;;26.20;67.70;;;;;;5062386;28;20225;-75
2023/07/09 06:00:57;;;;;;;4.77;4.00;;;26.20;67.10;;;;;;5073379;28;20684;-75
2023/07/09 06:03:28;;;;;;;5.00;4.27;;;26.30;67.20;;;;;;5073045;28;20201;-75
2023/07/09 06:05:55;;;;;;;5.70;4.10;;;26.40;67.10;;;;;;5073310;28;20593;-75
2023/07/09 06:08:22;;;;;;;5.27;4.40;;;26.50;67.00;;;;;;5072728;28;20289;-75
2023/07/09 06:10:54;;;;;;;4.47;3.90;;;26.50;66.90;;;;;;5073260;28;20285;-75
2023/07/09 06:13:22;;;;;;;10.43;4.40;;;26.70;66.80;;;;;;5073581;28;20283;-75
2023/07/09 06:15:51;;;;;;;6.60;4.07;;;26.80;66.20;;;;;;5073173;28;20640;-75
2023/07/09 06:18:18;;;;;;;5.10;4.27;;;26.80;65.90;;;;;;5072776;28;20225;-75
2023/07/09 06:20:48;;;;;;;5.77;4.40;;;26.80;65.60;;;;;;5072857;28;20694;-75
2023/07/09 06:23:15;;;;;;;5.47;3.93;;;26.90;65.70;;;;;;5073417;28;20512;-75
2023/07/09 06:25:42;;;;;;;4.93;4.27;;;27.00;65.80;;;;;;5073114;28;20301;-75
2023/07/09 06:28:09;;;;;;;5.60;4.53;;;27.10;65.80;;;;;;5073183;28;20208;-75
2023/07/09 06:30:38;;;;;;;5.93;4.13;;;27.20;65.60;;;;;;5072755;28;20227;-74
2023/07/09 06:33:05;;;;;;;4.17;3.77;;;27.30;65.20;;;;;;5072702;28;20205;-75
2023/07/09 06:35:32;;;;;;;6.47;4.50;;;27.40;65.10;;;;;;5072167;28;20316;-74
2023/07/09 06:37:59;;;;;;;5.37;4.57;;;27.50;65.10;;;;;;5072801;28;20212;-74
2023/07/09 06:40:26;;;;;;;6.33;4.30;;;27.60;64.70;;;;;;5072612;28;20218;-74
2023/07/09 06:42:52;;;;;;;7.67;4.30;;;27.70;63.90;;;;;;5064371;28;20225;-75
2023/07/09 06:45:19;;;;;;;6.47;4.23;;;27.80;63.80;;;;;;5070172;28;20192;-74
2023/07/09 06:47:49;;;;;;;4.20;3.77;;;27.80;63.70;;;;;;5072886;28;20231;-74
2023/07/09 06:50:16;;;;;;;4.33;3.93;;;28.00;64.30;;;;;;5072815;28;20219;-74
2023/07/09 06:52:43;;;;;;;5.90;4.20;;;28.10;64.40;;;;;;5036633;28;20550;-75
2023/07/09 06:55:10;;;;;;;5.23;4.13;;;28.10;64.50;;;;;;5072480;28;20203;-75
2023/07/09 06:57:37;;;;;;;4.33;3.93;;;28.20;65.40;;;;;;5072554;28;20648;-73
2023/07/09 07:00:06;;;;;;;5.23;4.20;;;28.30;64.50;;;;;;5072274;28;20343;-75
2023/07/09 07:02:33;;;;;;;4.77;3.67;;;28.40;64.30;;;;;;5072468;28;20204;-75
2023/07/09 07:05:01;;;;;;;4.93;4.13;;;28.50;64.40;;;;;;5036613;28;20250;-75
2023/07/09 07:07:28;;;;;;;5.37;4.33;;;28.60;64.60;;;;;;5071919;28;20207;-75
2023/07/09 07:09:55;;;;;;;8.13;4.73;;;28.70;64.10;;;;;;5072149;28;20203;-75
2023/07/09 07:12:27;;;;;;;5.83;4.23;;;28.80;63.80;;;;;;5072080;28;20240;-75
2023/07/09 07:14:54;;;;;;;4.93;4.20;;;28.90;63.90;;;;;;5071217;28;20209;-75
2023/07/09 07:17:21;;;;;;;5.47;4.10;;;29.00;64.10;;;;;;5063436;28;20221;-73
2023/07/09 07:19:48;;;;;;;5.67;4.07;;;29.00;62.60;;;;;;5070326;28;20224;-73
2023/07/09 07:22:16;;;;;;;4.83;3.70;;;29.10;62.20;;;;;;5071802;28;20562;-73
2023/07/09 07:24:43;;;;;;;5.40;4.20;;;29.20;61.80;;;;;;5072027;28;20660;-75
2023/07/09 07:27:10;;;;;;;4.50;4.10;;;29.30;61.00;;;;;;5072520;28;20239;-74
2023/07/09 07:29:37;;;;;;;5.67;4.63;;;29.40;61.00;;;;;;5072009;28;20633;-75
2023/07/09 07:32:04;;;;;;;5.50;3.93;;;29.50;60.90;;;;;;5072280;28;20201;-75
2023/07/09 07:34:31;;;;;;;6.07;4.30;;;29.60;60.60;;;;;;5071820;28;20215;-74
2023/07/09 07:36:58;;;;;;;6.37;4.53;;;29.70;60.30;;;;;;5055053;28;20210;-74
2023/07/09 07:39:26;;;;;;;6.10;4.33;;;29.80;59.20;;;;;;5051930;28;20320;-74
2023/07/09 07:41:55;;;;;;;6.30;4.77;;;29.90;59.30;;;;;;5065002;28;20225;-75
2023/07/09 07:44:22;;;;;;;4.37;3.97;;;30.00;59.70;;;;;;5061198;28;20208;-75
2023/07/09 07:46:49;;;;;;;6.27;4.20;;;30.10;59.80;;;;;;5071378;28;20225;-75
2023/07/09 07:49:16;;;;;;;6.63;4.37;;;30.20;59.40;;;;;;5071799;28;20288;-74
2023/07/09 07:51:44;;;;;;;4.83;4.27;;;30.30;58.60;;;;;;5072061;28;20207;-75
2023/07/09 07:54:11;;;;;;;5.83;4.20;;;30.40;58.90;;;;;;5072305;28;20217;-74
2023/07/09 07:56:39;;;;;;;5.10;3.93;;;30.50;58.20;;;;;;5071636;28;20200;-74
2023/07/09 07:59:06;;;;;;;6.63;4.50;;;30.60;58.90;;;;;;5070922;28;20239;-74
2023/07/09 08:01:35;;;;;;;5.77;4.03;;;30.70;58.20;;;;;;5071666;28;20291;-74
2023/07/09 08:04:02;;;;;;;5.20;4.33;;;30.80;58.30;;;;;;5071748;28;20610;-75
2023/07/09 08:06:31;;;;;;;5.33;4.00;;;31.00;58.20;;;;;;5071401;28;20196;-75
2023/07/09 08:08:58;;;;;;;4.93;4.40;;;31.10;58.60;;;;;;5071168;28;20304;-75
2023/07/09 08:11:27;;;;;;;5.97;4.30;;;31.20;58.60;;;;;;5071785;28;20201;-74
2023/07/09 08:13:56;;;;;;;5.10;4.00;;;31.20;58.40;;;;;;5071638;28;20232;-72
2023/07/09 08:16:23;;;;;;;4.53;4.10;;;31.40;58.60;;;;;;5059185;28;20278;-72
2023/07/09 08:18:51;;;;;;;5.77;4.37;;;31.50;57.90;;;;;;5071762;28;20693;-72
2023/07/09 08:21:18;;;;;;;5.40;4.13;;;31.50;57.30;;;;;;5074675;28;20219;-73
2023/07/09 08:23:46;;;;;;;4.77;3.90;;;31.70;58.50;;;;;;5075381;28;20197;-74
2023/07/09 08:26:13;;;;;;;4.40;4.00;;;31.80;56.80;;;;;;5075438;28;20217;-73
2023/07/09 08:28:40;;;;;;;6.17;4.17;;;31.80;57.00;;;;;;5074414;28;20701;-73
2023/07/09 08:31:09;;;;;;;5.90;4.43;;;32.00;55.40;;;;;;5075145;28;20252;-72
2023/07/09 08:33:37;;;;;;;5.83;4.30;;;32.10;56.00;;;;;;5074696;28;20219;-72
2023/07/09 08:36:04;;;;;;;5.10;3.93;;;32.10;55.70;;;;;;5074646;28;20239;-73
2023/07/09 08:38:31;;;;;;;6.20;3.83;;;32.20;53.30;;;;;;5074484;28;20226;-72
2023/07/09 08:41:01;;;;;;;7.87;4.13;;;32.20;53.10;;;;;;5075322;28;20286;-73
2023/07/09 08:43:36;;;;;;;3.93;3.60;;;32.30;54.40;;;;;;5074504;28;20656;-73
2023/07/09 08:46:15;;;;;;;4.57;3.80;;;32.40;53.40;;;;;;5074485;28;20693;-73
2023/07/09 08:48:48;;;;;;;5.83;4.00;;;32.50;54.80;;;;;;5054734;28;20257;-73
2023/07/09 08:51:20;;;;;;;4.03;3.57;;;32.60;54.10;;;;;;5054982;28;20747;-73
2023/07/09 08:53:51;;;;;;;4.43;4.03;;;32.70;54.30;;;;;;5055332;28;20188;-74
2023/07/09 08:56:19;;;;;;;6.60;4.23;;;32.80;53.60;;;;;;5056703;28;20207;-73
2023/07/09 08:58:49;;;;;;;5.80;4.20;;;32.90;54.50;;;;;;5073915;28;20759;-73
2023/07/09 09:01:21;;;;;;;4.77;4.00;;;33.00;54.10;;;;;;5074567;28;20214;-73
2023/07/09 09:03:51;;;;;;;8.77;4.40;;;33.10;55.00;;;;;;5074494;28;20188;-74
2023/07/09 09:06:20;;;;;;;4.90;4.33;;;33.20;54.00;;;;;;5074275;28;20515;-71
2023/07/09 09:09:03;;;;;;;5.37;4.10;;;33.30;54.00;;;;;;5070175;28;20203;-73
2023/07/09 09:11:40;;;;;;;4.70;4.00;;;33.40;52.80;;;;;;5074414;28;20228;-72
2023/07/09 09:14:18;;;;;;;5.37;4.13;;;33.50;53.10;;;;;;5074443;28;20196;-73
2023/07/09 09:16:48;;;;;;;8.00;4.27;;;33.60;52.70;;;;;;5074100;28;20316;-72
2023/07/09 09:19:22;;;;;;;5.27;3.60;;;33.70;53.60;;;;;;5073614;28;20759;-73
2023/07/09 09:21:55;;;;;;;5.17;4.07;;;33.80;53.00;;;;;;5074442;28;20228;-75
2023/07/09 09:24:28;;;;;;;6.87;4.40;;;33.90;52.60;;;;;;5074010;28;20193;-73
2023/07/09 09:26:58;;;;;;;4.20;3.80;;;34.00;52.20;;;;;;5073793;28;20204;-73
2023/07/09 09:29:26;;;;;;;4.27;3.87;;;34.10;52.60;;;;;;5071323;28;20224;-73
2023/07/09 09:31:56;;;;;;;4.43;4.03;;;34.20;51.90;;;;;;5059953;28;20211;-74
2023/07/09 09:34:26;;;;;;;4.97;4.20;;;34.20;51.90;;;;;;5073665;28;20220;-74
2023/07/09 09:36:54;;;;;;;5.33;3.90;;;34.30;52.30;;;;;;5073860;28;20194;-74
2023/07/09 09:39:21;;;;;;;6.43;3.87;;;34.40;50.70;;;;;;5073205;28;20227;-74
2023/07/09 09:41:48;;;;;;;4.20;3.80;;;34.50;49.10;;;;;;5073888;28;20227;-74
2023/07/09 09:44:20;;;;;;;4.20;3.80;;;34.60;49.50;;;;;;5069368;28;20704;-74
2023/07/09 09:46:49;;;;;;;4.93;3.80;;;34.70;47.70;;;;;;5085848;28;20235;-74
2023/07/09 09:49:17;;;;;;;4.37;3.73;;;34.70;47.50;;;;;;5073922;28;20211;-73
2023/07/09 09:51:46;;;;;;;3.70;3.30;;;34.80;47.90;;;;;;5073372;28;20546;-73
2023/07/09 09:54:19;;;;;;;5.17;3.90;;;34.90;47.70;;;;;;5073945;28;20605;-74
2023/07/09 09:56:48;;;;;;;5.47;3.87;;;35.00;48.00;;;;;;5070489;28;20209;-73
2023/07/09 09:59:19;;;;;;;5.40;3.63;;;35.10;47.20;;;;;;5065661;28;20327;-73
2023/07/09 10:01:46;;;;;;;4.53;3.60;;;35.20;47.80;;;;;;5062621;28;20667;-72
2023/07/09 10:04:19;;;;;;;4.87;4.00;;;35.30;47.70;;;;;;5071439;28;20221;-74
2023/07/09 10:06:51;;;;;;;5.57;4.13;;;35.40;46.00;;;;;;5068943;28;20195;-73
2023/07/09 10:09:27;;;;;;;4.00;3.60;;;35.50;45.70;;;;;;5072720;28;20568;-72
2023/07/09 10:12:02;;;;;;;4.93;4.10;;;35.50;46.10;;;;;;5056827;28;20225;-71
2023/07/09 10:14:37;;;;;;;7.17;4.00;;;35.60;45.80;;;;;;5072157;28;20600;-73
2023/07/09 10:17:13;;;;;;;6.80;3.63;;;35.70;46.00;;;;;;5068288;28;20228;-73
2023/07/09 10:19:50;;;;;;;6.77;3.97;;;35.70;46.00;;;;;;5059917;28;20214;-71
2023/07/09 10:22:26;;;;;;;4.50;3.73;;;35.80;44.30;;;;;;5073187;28;20213;-72
2023/07/09 10:25:02;;;;;;;3.90;3.30;;;35.90;45.00;;;;;;5072664;28;20203;-71
2023/07/09 10:27:37;;;;;;;5.23;3.30;;;36.00;46.00;;;;;;5063975;28;20194;-72
2023/07/09 10:30:20;;;;;;;5.17;3.43;;;36.10;45.90;;;;;;5067269;28;20240;-71
2023/07/09 10:33:03;;;;;;;5.43;3.57;;;36.20;43.40;;;;;;5072752;28;20316;-73
2023/07/09 10:35:38;;;;;;;4.53;3.40;;;36.30;43.90;;;;;;5072064;28;20227;-73
2023/07/09 10:38:46;;;;;;;4.00;3.30;;;36.40;44.70;;;;;;5036320;28;20238;-72
2023/07/09 10:41:14;;;;;;;3.93;3.50;;;36.50;43.80;;;;;;5070328;28;20211;-73
2023/07/09 10:43:47;;;;;;;4.70;3.43;;;36.60;42.70;;;;;;5066029;28;20553;-75
2023/07/09 10:46:18;;;;;;;4.77;3.70;;;36.70;42.70;;;;;;5069114;28;20657;-74
2023/07/09 10:48:48;;;;;;;4.23;3.83;;;36.70;42.30;;;;;;5060855;28;20234;-75
2023/07/09 10:51:23;;;;;;;6.37;3.73;;;36.80;42.10;;;;;;5071691;28;20624;-74
2023/07/09 10:53:53;;;;;;;3.40;3.10;;;36.90;41.60;;;;;;5072628;28;20205;-75
2023/07/09 10:56:23;;;;;;;4.50;3.30;;;37.00;41.90;;;;;;5072422;28;20195;-74
2023/07/09 10:58:56;;;;;;;4.07;3.43;;;37.00;40.70;;;;;;5065628;28;20755;-74
2023/07/09 11:01:34;;;;;;;3.80;3.20;;;37.10;40.90;;;;;;5069620;28;20235;-75
2023/07/09 11:04:04;;;;;;;5.47;4.17;;;37.20;41.20;;;;;;5071999;28;20216;-74
2023/07/09 11:06:37;;;;;;;5.53;3.60;;;37.30;41.60;;;;;;5070791;28;20208;-74
2023/07/09 11:09:08;;;;;;;3.83;3.47;;;37.40;41.40;;;;;;5072208;28;20198;-75
2023/07/09 11:11:40;;;;;;;4.20;3.57;;;37.40;42.50;;;;;;5072342;28;20184;-75
2023/07/09 11:14:15;;;;;;;4.23;3.30;;;37.60;40.70;;;;;;5071867;28;20232;-75
2023/07/09 11:16:43;;;;;;;5.37;3.40;;;37.60;40.40;;;;;;5072178;28;20561;-74
2023/07/09 11:19:18;;;;;;;4.23;3.30;;;37.70;40.70;;;;;;5068983;28;20240;-75
2023/07/09 11:22:03;;;;;;;3.93;3.47;;;37.80;40.30;;;;;;5071329;28;20192;-74
2023/07/09 11:24:35;;;;;;;6.93;4.10;;;37.90;39.20;;;;;;5072071;28;20213;-74
2023/07/09 11:27:02;;;;;;;3.97;3.27;;;38.00;39.60;;;;;;5071582;28;20308;-74
2023/07/09 11:29:29;;;;;;;3.93;3.50;;;38.00;38.60;;;;;;5071884;28;20216;-75
2023/07/09 11:31:59;;;;;;;4.80;3.70;;;38.00;39.40;;;;;;5070623;28;20601;-75
2023/07/09 11:34:29;;;;;;;5.40;3.50;;;38.20;40.30;;;;;;5070537;28;20223;-74
2023/07/09 11:37:00;;;;;;;3.93;3.30;;;38.20;38.70;;;;;;5070799;28;20208;-74
2023/07/09 11:39:30;;;;;;;4.13;3.30;;;38.30;38.80;;;;;;5071293;28;20311;-75
2023/07/09 11:41:57;;;;;;;5.73;3.57;;;38.30;38.10;;;;;;5071057;28;20296;-74
2023/07/09 11:44:28;;;;;;;6.03;3.70;;;38.30;36.70;;;;;;5067679;28;20211;-74
2023/07/09 11:47:13;;;;;;;7.00;3.40;;;38.20;35.60;;;;;;5069503;28;20230;-74
2023/07/09 11:49:49;;;;;;;5.00;3.40;;;38.20;38.40;;;;;;5055196;28;20202;-75
2023/07/09 11:52:24;;;;;;;4.87;3.20;;;38.30;38.80;;;;;;5061300;28;20231;-75
2023/07/09 11:54:51;;;;;;;4.27;3.37;;;38.50;37.60;;;;;;5071266;28;20193;-75
2023/07/09 11:57:19;;;;;;;4.60;3.33;;;38.50;36.10;;;;;;5056900;28;20734;-75
2023/07/09 11:59:46;;;;;;;5.77;4.00;;;38.60;35.80;;;;;;5066889;28;20233;-76
2023/07/09 12:02:19;;;;;;;6.73;4.20;;;38.60;36.80;;;;;;5074215;28;20209;-75
2023/07/09 12:04:49;;;;;;;3.57;3.27;;;38.70;37.30;;;;;;5075134;28;20195;-73
2023/07/09 12:07:18;;;;;;;5.00;3.80;;;38.80;36.60;;;;;;5074137;28;20290;-73
2023/07/09 12:09:50;;;;;;;5.77;3.60;;;38.80;34.70;;;;;;5074721;28;20194;-73
2023/07/09 12:12:22;;;;;;;4.07;3.30;;;38.90;35.60;;;;;;5075080;28;20707;-73
2023/07/09 12:14:50;;;;;;;7.30;3.70;;;38.90;32.00;;;;;;5074960;28;20300;-73
2023/07/09 12:17:17;;;;;;;3.83;3.10;;;38.90;33.50;;;;;;5074972;28;20205;-73
2023/07/09 12:19:44;;;;;;;4.77;3.23;;;38.80;33.10;;;;;;5075352;28;20242;-73
2023/07/09 12:22:19;;;;;;;3.70;3.40;;;38.90;32.60;;;;;;5075566;28;20312;-73
2023/07/09 12:24:49;;;;;;;5.17;3.60;;;38.90;33.00;;;;;;5074165;28;20211;-73
2023/07/09 12:27:22;;;;;;;3.40;2.90;;;39.00;34.60;;;;;;5073549;28;20206;-74
2023/07/09 12:29:54;;;;;;;5.07;3.67;;;39.10;32.70;;;;;;5073632;28;20218;-73
2023/07/09 12:32:22;;;;;;;4.60;3.67;;;39.20;32.70;;;;;;5074414;28;20227;-74
2023/07/09 12:34:52;;;;;;;4.37;3.60;;;39.30;33.50;;;;;;5073673;28;20201;-73
2023/07/09 12:37:23;;;;;;;4.30;3.60;;;39.40;34.00;;;;;;5073824;28;20212;-73
2023/07/09 12:39:52;;;;;;;4.63;3.17;;;39.50;32.60;;;;;;5073358;28;20244;-73
2023/07/09 12:42:21;;;;;;;5.83;4.10;;;39.50;33.00;;;;;;5073437;28;20225;-74
2023/07/09 12:44:49;;;;;;;5.13;3.80;;;39.60;34.20;;;;;;5073317;28;20203;-74
2023/07/09 12:47:18;;;;;;;4.57;4.03;;;39.70;35.10;;;;;;5072895;28;20228;-73
2023/07/09 12:49:47;;;;;;;4.73;3.70;;;39.80;33.80;;;;;;5072862;28;20198;-73
2023/07/09 12:52:19;;;;;;;6.97;3.70;;;39.70;30.70;;;;;;5072649;28;20300;-74
2023/07/09 12:54:57;;;;;;;5.27;3.70;;;39.60;31.80;;;;;;5072341;28;20240;-73
2023/07/09 12:57:24;;;;;;;4.93;3.50;;;39.70;30.90;;;;;;5072632;28;20687;-73
2023/07/09 12:59:52;;;;;;;5.77;3.77;;;39.80;31.90;;;;;;5072145;28;20643;-73